Richards, Texas
Current Conditions -  °F | °C
As of 7:53 PM on Monday 24 Nov 2014 (Local Time) from KUTS Reporting Station
Clear Clear  
Wind Chill: 47°   Ceiling: Unl
Heat Index: 47°   Visibility: 10mi
Dew Point: 35°   Wind: 3mph
Humidity: 63%   Direction: 340°NNW
Pressure: 30.11"   Gusts: NA
Location:  30.54°N, 95.84°W
Report Text: KUTS 250153Z AUTO 34003KT 10SM CLR 08/02 A3011 RMK AO2 SLP194 T00830017
Loading
Personal Weather Stations






























Interactive Weather Map New forecast layout! Learn more

10-Day Weather Forecast

Advertisements
Track Severe Weather on mobile